WZZ50ML EBCI-EPWA
Flight info
| Callsign | WZZ50ML |
|---|---|
| Flight time | 1h 46m |
| Altitude | 39000 |
| Route | SPI Y862 KENUM N853 ONUNE DCT TOLTA DCT MAG DCT GOVEN DCT ADVAB DCT OBOKU P150 BIMPA |
| Aircraft | A320/M-SDE1E2E3FGIJ1J4RWXY/LB1 |
Departure
| Time | 2026-04-30 18:45 |
|---|---|
| Airport | Brussels South Charleroi Airport (EBCI) |
Arrival
| Time | 2026-04-30 20:31 |
|---|---|
| Airport | Warsaw Chopin Airport (EPWA) |
| Time | Latitude | Longitude | Altitude | Speed | Heading |
|---|---|---|---|---|---|
| 2026-04-30 17:57 | 50.46819 | 4.46931 | 617 ft | 0 kts | 334° |
| 2026-04-30 18:00 | 50.46822 | 4.46929 | 612 ft | 0 kts | 334° |
| 2026-04-30 18:30 | 50.46797 | 4.46948 | 624 ft | 2 kts | 334° |
| 2026-04-30 18:31 | 50.46782 | 4.46960 | 627 ft | 2 kts | 334° |
| 2026-04-30 18:31 | 50.46768 | 4.46987 | 624 ft | 2 kts | 276° |
| 2026-04-30 18:32 | 50.46768 | 4.47002 | 621 ft | 0 kts | 243° |
| 2026-04-30 18:36 | 50.46761 | 4.46980 | 624 ft | 3 kts | 243° |
| 2026-04-30 18:36 | 50.46747 | 4.46941 | 619 ft | 5 kts | 242° |
| 2026-04-30 18:36 | 50.46707 | 4.46812 | 623 ft | 8 kts | 244° |
| 2026-04-30 18:37 | 50.46654 | 4.46793 | 623 ft | 10 kts | 160° |
| 2026-04-30 18:37 | 50.46593 | 4.46755 | 618 ft | 11 kts | 239° |
| 2026-04-30 18:37 | 50.46558 | 4.46634 | 617 ft | 13 kts | 245° |
| 2026-04-30 18:37 | 50.46517 | 4.46498 | 624 ft | 15 kts | 245° |
| 2026-04-30 18:38 | 50.46473 | 4.46346 | 621 ft | 16 kts | 246° |
| 2026-04-30 18:38 | 50.46425 | 4.46177 | 620 ft | 18 kts | 246° |
| 2026-04-30 18:38 | 50.46372 | 4.45993 | 622 ft | 19 kts | 245° |
| 2026-04-30 18:38 | 50.46313 | 4.45793 | 622 ft | 21 kts | 245° |
| 2026-04-30 18:39 | 50.46253 | 4.45584 | 623 ft | 21 kts | 245° |
| 2026-04-30 18:39 | 50.46195 | 4.45381 | 625 ft | 21 kts | 246° |
| 2026-04-30 18:39 | 50.46130 | 4.45162 | 629 ft | 23 kts | 245° |
| 2026-04-30 18:39 | 50.46061 | 4.44924 | 635 ft | 25 kts | 245° |
| 2026-04-30 18:40 | 50.45991 | 4.44683 | 630 ft | 19 kts | 245° |
| 2026-04-30 18:40 | 50.45935 | 4.44490 | 634 ft | 20 kts | 242° |
| 2026-04-30 18:40 | 50.45857 | 4.44322 | 631 ft | 15 kts | 232° |
| 2026-04-30 18:40 | 50.45787 | 4.44182 | 632 ft | 17 kts | 232° |
| 2026-04-30 18:41 | 50.45772 | 4.44151 | 635 ft | 0 kts | 232° |
| 2026-04-30 18:45 | 50.47474 | 4.49328 | 1911 ft | 163 kts | 56° |
| 2026-04-30 18:45 | 50.48260 | 4.50766 | 2275 ft | 186 kts | 56° |
| 2026-04-30 18:45 | 50.49161 | 4.52436 | 2618 ft | 214 kts | 56° |
| 2026-04-30 18:46 | 50.50185 | 4.54326 | 3135 ft | 239 kts | 56° |
| 2026-04-30 18:46 | 50.51306 | 4.56377 | 3844 ft | 254 kts | 54° |
| 2026-04-30 18:46 | 50.52478 | 4.58506 | 4778 ft | 261 kts | 54° |
| 2026-04-30 18:46 | 50.53658 | 4.60728 | 5675 ft | 268 kts | 56° |
| 2026-04-30 18:47 | 50.54814 | 4.63044 | 6626 ft | 271 kts | 56° |
| 2026-04-30 18:47 | 50.55965 | 4.65416 | 7519 ft | 274 kts | 57° |
| 2026-04-30 18:47 | 50.57125 | 4.67808 | 8475 ft | 276 kts | 56° |
| 2026-04-30 18:47 | 50.58302 | 4.70217 | 9376 ft | 280 kts | 56° |
| 2026-04-30 18:48 | 50.59501 | 4.72661 | 10250 ft | 284 kts | 56° |
| 2026-04-30 18:48 | 50.60700 | 4.75105 | 11045 ft | 288 kts | 55° |
| 2026-04-30 18:48 | 50.61963 | 4.77679 | 11452 ft | 308 kts | 55° |
| 2026-04-30 18:48 | 50.63315 | 4.80440 | 11830 ft | 326 kts | 55° |
| 2026-04-30 18:49 | 50.64632 | 4.83378 | 12492 ft | 330 kts | 64° |
| 2026-04-30 18:49 | 50.65483 | 4.86733 | 13232 ft | 331 kts | 77° |
| 2026-04-30 18:49 | 50.66140 | 4.90237 | 13970 ft | 336 kts | 72° |
| 2026-04-30 18:49 | 50.67051 | 4.93658 | 14648 ft | 341 kts | 67° |
| 2026-04-30 18:50 | 50.68104 | 4.97027 | 15315 ft | 345 kts | 65° |
| 2026-04-30 18:50 | 50.69209 | 5.00402 | 15932 ft | 348 kts | 65° |
| 2026-04-30 18:50 | 50.70315 | 5.03817 | 16576 ft | 351 kts | 65° |
| 2026-04-30 18:50 | 50.71403 | 5.07286 | 17209 ft | 354 kts | 66° |
| 2026-04-30 18:51 | 50.72472 | 5.10813 | 17883 ft | 357 kts | 67° |
| 2026-04-30 18:51 | 50.73529 | 5.14383 | 18531 ft | 361 kts | 68° |
| 2026-04-30 18:51 | 50.74580 | 5.17986 | 19160 ft | 361 kts | 68° |
| 2026-04-30 18:51 | 50.75629 | 5.21602 | 19795 ft | 363 kts | 67° |
| 2026-04-30 18:52 | 50.76682 | 5.25241 | 20395 ft | 366 kts | 67° |
| 2026-04-30 18:52 | 50.77743 | 5.28909 | 20974 ft | 369 kts | 67° |
| 2026-04-30 18:52 | 50.78813 | 5.32607 | 21540 ft | 371 kts | 67° |
| 2026-04-30 18:52 | 50.79892 | 5.36332 | 22065 ft | 374 kts | 67° |
| 2026-04-30 18:53 | 50.80979 | 5.40086 | 22600 ft | 377 kts | 67° |
| 2026-04-30 18:53 | 50.81706 | 5.42592 | 22953 ft | 379 kts | 67° |
| 2026-04-30 18:53 | 50.82807 | 5.46393 | 23496 ft | 382 kts | 66° |
| 2026-04-30 18:53 | 50.83916 | 5.50224 | 23995 ft | 385 kts | 66° |
| 2026-04-30 18:54 | 50.85031 | 5.54087 | 24439 ft | 387 kts | 67° |
| 2026-04-30 18:54 | 50.86149 | 5.57979 | 24883 ft | 390 kts | 67° |
| 2026-04-30 18:54 | 50.87272 | 5.61899 | 25317 ft | 392 kts | 67° |
| 2026-04-30 18:54 | 50.88400 | 5.65842 | 25769 ft | 395 kts | 66° |
| 2026-04-30 18:55 | 50.89537 | 5.69819 | 26191 ft | 398 kts | 66° |
| 2026-04-30 18:55 | 50.91832 | 5.77854 | 27040 ft | 403 kts | 66° |
| 2026-04-30 18:55 | 50.92991 | 5.81920 | 27446 ft | 405 kts | 67° |
| 2026-04-30 18:56 | 50.95317 | 5.90115 | 28288 ft | 410 kts | 67° |
| 2026-04-30 18:56 | 50.96490 | 5.94252 | 28708 ft | 412 kts | 67° |
| 2026-04-30 18:56 | 50.97668 | 5.98415 | 29109 ft | 415 kts | 67° |
| 2026-04-30 18:57 | 51.00038 | 6.06824 | 29936 ft | 420 kts | 67° |
| 2026-04-30 18:57 | 51.01234 | 6.11077 | 30327 ft | 423 kts | 67° |
| 2026-04-30 18:57 | 51.02436 | 6.15352 | 30682 ft | 425 kts | 66° |
| 2026-04-30 18:58 | 51.04849 | 6.23962 | 31397 ft | 429 kts | 67° |
| 2026-04-30 18:58 | 51.06063 | 6.28312 | 31746 ft | 431 kts | 67° |
| 2026-04-30 18:58 | 51.07277 | 6.32666 | 32172 ft | 431 kts | 67° |
| 2026-04-30 18:59 | 51.09687 | 6.41353 | 33191 ft | 428 kts | 67° |
| 2026-04-30 19:00 | 51.13218 | 6.54120 | 34622 ft | 424 kts | 66° |
| 2026-04-30 19:00 | 51.14402 | 6.58412 | 35046 ft | 423 kts | 66° |
| 2026-04-30 19:00 | 51.16761 | 6.66986 | 35806 ft | 422 kts | 66° |
| 2026-04-30 19:01 | 51.19105 | 6.75526 | 36601 ft | 420 kts | 66° |
| 2026-04-30 19:01 | 51.20270 | 6.79795 | 36962 ft | 419 kts | 66° |
| 2026-04-30 19:02 | 51.22591 | 6.88299 | 37672 ft | 418 kts | 66° |
| 2026-04-30 19:02 | 51.24889 | 6.96786 | 38351 ft | 416 kts | 66° |
| 2026-04-30 19:03 | 51.27175 | 7.05269 | 38998 ft | 415 kts | 66° |
| 2026-04-30 19:03 | 51.29458 | 7.13755 | 39321 ft | 417 kts | 66° |
| 2026-04-30 19:04 | 51.31751 | 7.22269 | 39346 ft | 415 kts | 66° |
| 2026-04-30 19:05 | 51.36279 | 7.39227 | 39356 ft | 415 kts | 66° |
| 2026-04-30 19:06 | 51.39389 | 7.57036 | 39357 ft | 416 kts | 75° |
| 2026-04-30 19:06 | 51.41542 | 7.70520 | 39374 ft | 417 kts | 74° |
| 2026-04-30 19:07 | 51.43686 | 7.84013 | 39382 ft | 416 kts | 74° |
| 2026-04-30 19:08 | 51.46510 | 8.02010 | 39392 ft | 416 kts | 74° |
| 2026-04-30 19:09 | 51.48595 | 8.15469 | 39406 ft | 416 kts | 75° |
| 2026-04-30 19:09 | 51.49989 | 8.24471 | 39420 ft | 416 kts | 74° |
| 2026-04-30 19:10 | 51.52750 | 8.42477 | 39422 ft | 415 kts | 74° |
| 2026-04-30 19:11 | 51.54792 | 8.55987 | 39428 ft | 415 kts | 74° |
| 2026-04-30 19:12 | 51.56144 | 8.65001 | 39424 ft | 415 kts | 75° |
| 2026-04-30 19:12 | 51.57490 | 8.74021 | 39436 ft | 415 kts | 74° |
| 2026-04-30 19:13 | 51.60168 | 8.92058 | 39433 ft | 414 kts | 74° |
| 2026-04-30 19:14 | 51.61494 | 9.01079 | 39434 ft | 414 kts | 74° |
| 2026-04-30 19:14 | 51.62811 | 9.10099 | 39435 ft | 414 kts | 74° |
| 2026-04-30 19:15 | 51.64122 | 9.19116 | 39444 ft | 414 kts | 75° |
| 2026-04-30 19:15 | 51.66075 | 9.32673 | 39451 ft | 414 kts | 75° |
| 2026-04-30 19:16 | 51.67364 | 9.41705 | 39438 ft | 414 kts | 75° |
| 2026-04-30 19:17 | 51.69293 | 9.55289 | 39438 ft | 415 kts | 75° |
| 2026-04-30 19:17 | 51.71269 | 9.68888 | 39447 ft | 415 kts | 75° |
| 2026-04-30 19:18 | 51.73229 | 9.82491 | 39467 ft | 415 kts | 74° |
| 2026-04-30 19:19 | 51.74513 | 9.91554 | 39464 ft | 414 kts | 74° |
| 2026-04-30 19:19 | 51.76420 | 10.05132 | 39466 ft | 413 kts | 74° |
| 2026-04-30 19:20 | 51.77690 | 10.14182 | 39467 ft | 413 kts | 74° |
| 2026-04-30 19:21 | 51.79582 | 10.27758 | 39483 ft | 413 kts | 74° |
| 2026-04-30 19:22 | 51.82070 | 10.45840 | 39472 ft | 411 kts | 74° |
| 2026-04-30 19:23 | 51.85745 | 10.72981 | 39464 ft | 412 kts | 75° |
| 2026-04-30 19:24 | 51.87559 | 10.86589 | 39477 ft | 412 kts | 74° |
| 2026-04-30 19:25 | 51.90556 | 11.09281 | 39466 ft | 412 kts | 74° |
| 2026-04-30 19:26 | 51.92926 | 11.27450 | 39455 ft | 412 kts | 75° |
| 2026-04-30 19:27 | 51.94670 | 11.41096 | 39464 ft | 412 kts | 74° |
| 2026-04-30 19:28 | 51.96401 | 11.54710 | 39462 ft | 411 kts | 75° |
| 2026-04-30 19:29 | 51.98689 | 11.72866 | 39459 ft | 411 kts | 75° |
| 2026-04-30 19:30 | 51.99898 | 11.91379 | 39466 ft | 415 kts | 82° |
| 2026-04-30 19:31 | 52.00507 | 12.10044 | 39452 ft | 414 kts | 82° |
| 2026-04-30 19:31 | 52.00931 | 12.23968 | 39460 ft | 414 kts | 83° |
| 2026-04-30 19:32 | 52.01206 | 12.33290 | 39483 ft | 414 kts | 82° |
| 2026-04-30 19:32 | 52.01482 | 12.42611 | 39470 ft | 413 kts | 82° |
| 2026-04-30 19:33 | 52.01748 | 12.51919 | 39462 ft | 413 kts | 82° |
| 2026-04-30 19:33 | 52.02004 | 12.61226 | 39458 ft | 412 kts | 82° |
| 2026-04-30 19:34 | 52.02251 | 12.70521 | 39458 ft | 412 kts | 82° |
| 2026-04-30 19:35 | 52.02607 | 12.84460 | 39479 ft | 412 kts | 82° |
| 2026-04-30 19:35 | 52.02834 | 12.93741 | 39469 ft | 411 kts | 82° |
| 2026-04-30 19:36 | 52.03053 | 13.03004 | 39461 ft | 410 kts | 82° |
| 2026-04-30 19:36 | 52.03340 | 13.15305 | 39447 ft | 410 kts | 83° |
| 2026-04-30 19:37 | 52.03543 | 13.24559 | 39438 ft | 410 kts | 83° |
| 2026-04-30 19:37 | 52.03739 | 13.33811 | 39443 ft | 410 kts | 83° |
| 2026-04-30 19:38 | 52.03927 | 13.43064 | 39452 ft | 410 kts | 83° |
| 2026-04-30 19:38 | 52.04107 | 13.52306 | 39444 ft | 410 kts | 83° |
| 2026-04-30 19:39 | 52.04278 | 13.61557 | 39440 ft | 409 kts | 83° |
| 2026-04-30 19:39 | 52.04449 | 13.70794 | 39440 ft | 409 kts | 83° |
| 2026-04-30 19:40 | 52.04615 | 13.80033 | 39434 ft | 409 kts | 83° |
| 2026-04-30 19:40 | 52.04768 | 13.89263 | 39443 ft | 408 kts | 83° |
| 2026-04-30 19:41 | 52.04907 | 13.98447 | 39440 ft | 406 kts | 83° |
| 2026-04-30 19:41 | 52.05047 | 14.07625 | 39437 ft | 406 kts | 83° |
| 2026-04-30 19:42 | 52.05180 | 14.16806 | 39437 ft | 407 kts | 83° |
| 2026-04-30 19:42 | 52.05300 | 14.25999 | 39438 ft | 407 kts | 83° |
| 2026-04-30 19:43 | 52.05415 | 14.35185 | 39438 ft | 407 kts | 83° |
| 2026-04-30 19:44 | 52.05572 | 14.48966 | 39441 ft | 407 kts | 83° |
| 2026-04-30 19:44 | 52.05676 | 14.58157 | 39441 ft | 407 kts | 83° |
| 2026-04-30 19:45 | 52.05768 | 14.67287 | 39438 ft | 407 kts | 83° |
| 2026-04-30 19:45 | 52.05851 | 14.76482 | 39438 ft | 406 kts | 83° |
| 2026-04-30 19:46 | 52.06165 | 14.85619 | 39456 ft | 404 kts | 79° |
| 2026-04-30 19:46 | 52.06644 | 14.94708 | 39452 ft | 404 kts | 79° |
| 2026-04-30 19:47 | 52.07093 | 15.03808 | 39451 ft | 404 kts | 80° |
| 2026-04-30 19:47 | 52.07482 | 15.12931 | 39447 ft | 405 kts | 80° |
| 2026-04-30 19:48 | 52.07847 | 15.22057 | 39437 ft | 405 kts | 80° |
| 2026-04-30 19:48 | 52.08212 | 15.31182 | 39434 ft | 404 kts | 80° |
| 2026-04-30 19:49 | 52.08577 | 15.40314 | 39458 ft | 404 kts | 80° |
| 2026-04-30 19:49 | 52.09105 | 15.53984 | 39433 ft | 404 kts | 81° |
| 2026-04-30 19:50 | 52.09453 | 15.63103 | 39433 ft | 404 kts | 81° |
| 2026-04-30 19:50 | 52.09795 | 15.72228 | 39429 ft | 404 kts | 81° |
| 2026-04-30 19:51 | 52.10132 | 15.81353 | 39429 ft | 404 kts | 81° |
| 2026-04-30 19:51 | 52.10461 | 15.90483 | 39429 ft | 404 kts | 81° |
| 2026-04-30 19:52 | 52.10774 | 15.99597 | 39423 ft | 403 kts | 81° |
| 2026-04-30 19:52 | 52.11072 | 16.08694 | 39420 ft | 403 kts | 81° |
| 2026-04-30 19:53 | 52.11376 | 16.17798 | 39417 ft | 403 kts | 81° |
| 2026-04-30 19:53 | 52.11682 | 16.26908 | 39418 ft | 403 kts | 81° |
| 2026-04-30 19:54 | 52.11972 | 16.36026 | 39417 ft | 403 kts | 81° |
| 2026-04-30 19:54 | 52.12254 | 16.45137 | 39440 ft | 403 kts | 81° |
| 2026-04-30 19:55 | 52.12527 | 16.54208 | 39425 ft | 401 kts | 81° |
| 2026-04-30 19:55 | 52.12792 | 16.63272 | 39419 ft | 401 kts | 81° |
| 2026-04-30 19:56 | 52.13064 | 16.72343 | 39420 ft | 400 kts | 78° |
| 2026-04-30 19:56 | 52.13925 | 16.81209 | 39432 ft | 397 kts | 75° |
| 2026-04-30 19:57 | 52.14816 | 16.90074 | 39433 ft | 397 kts | 75° |
| 2026-04-30 19:57 | 52.15691 | 16.98947 | 39440 ft | 397 kts | 75° |
| 2026-04-30 19:58 | 52.16561 | 17.07826 | 39428 ft | 397 kts | 75° |
| 2026-04-30 19:58 | 52.17427 | 17.16722 | 39422 ft | 398 kts | 75° |
| 2026-04-30 19:59 | 52.18287 | 17.25625 | 39416 ft | 398 kts | 75° |
| 2026-04-30 20:00 | 52.19578 | 17.38991 | 39415 ft | 398 kts | 75° |
| 2026-04-30 20:00 | 52.20423 | 17.47906 | 39416 ft | 398 kts | 76° |
| 2026-04-30 20:01 | 52.21679 | 17.61294 | 39433 ft | 399 kts | 76° |
| 2026-04-30 20:01 | 52.22516 | 17.70238 | 39417 ft | 399 kts | 76° |
| 2026-04-30 20:02 | 52.23752 | 17.83681 | 39412 ft | 400 kts | 76° |
| 2026-04-30 20:03 | 52.24050 | 17.92770 | 39409 ft | 412 kts | 92° |
| 2026-04-30 20:03 | 52.23599 | 17.97387 | 39407 ft | 412 kts | 92° |
| 2026-04-30 20:03 | 52.22653 | 18.06627 | 39378 ft | 415 kts | 92° |
| 2026-04-30 20:04 | 52.22166 | 18.11260 | 39153 ft | 414 kts | 92° |
| 2026-04-30 20:04 | 52.21677 | 18.15879 | 38896 ft | 413 kts | 92° |
| 2026-04-30 20:04 | 52.21190 | 18.20490 | 38610 ft | 412 kts | 92° |
| 2026-04-30 20:05 | 52.20220 | 18.29680 | 38043 ft | 410 kts | 92° |
| 2026-04-30 20:05 | 52.19735 | 18.34257 | 37769 ft | 410 kts | 92° |
| 2026-04-30 20:05 | 52.18765 | 18.43394 | 36725 ft | 410 kts | 91° |
| 2026-04-30 20:06 | 52.18277 | 18.47964 | 36223 ft | 407 kts | 91° |
| 2026-04-30 20:06 | 52.17789 | 18.52479 | 35808 ft | 403 kts | 91° |
| 2026-04-30 20:06 | 52.17302 | 18.56957 | 35365 ft | 400 kts | 90° |
| 2026-04-30 20:06 | 52.16821 | 18.61395 | 34925 ft | 396 kts | 90° |
| 2026-04-30 20:07 | 52.16341 | 18.65792 | 34473 ft | 392 kts | 90° |
| 2026-04-30 20:07 | 52.15869 | 18.70140 | 33984 ft | 388 kts | 90° |
| 2026-04-30 20:07 | 52.14955 | 18.78502 | 33123 ft | 378 kts | 90° |
| 2026-04-30 20:08 | 52.14494 | 18.82685 | 32695 ft | 373 kts | 90° |
| 2026-04-30 20:08 | 52.14042 | 18.86750 | 32278 ft | 368 kts | 90° |
| 2026-04-30 20:08 | 52.13587 | 18.90817 | 31858 ft | 363 kts | 90° |
| 2026-04-30 20:08 | 52.13133 | 18.94880 | 31430 ft | 358 kts | 90° |
| 2026-04-30 20:09 | 52.12689 | 18.98844 | 31045 ft | 354 kts | 90° |
| 2026-04-30 20:09 | 52.12250 | 19.02758 | 30682 ft | 350 kts | 89° |
| 2026-04-30 20:09 | 52.11389 | 19.10403 | 29851 ft | 341 kts | 89° |
| 2026-04-30 20:10 | 52.10539 | 19.17923 | 29128 ft | 331 kts | 89° |
| 2026-04-30 20:10 | 52.10126 | 19.21581 | 28780 ft | 326 kts | 89° |
| 2026-04-30 20:10 | 52.09716 | 19.25184 | 28434 ft | 322 kts | 89° |
| 2026-04-30 20:11 | 52.08908 | 19.32241 | 27768 ft | 313 kts | 89° |
| 2026-04-30 20:11 | 52.08511 | 19.35698 | 27438 ft | 309 kts | 89° |
| 2026-04-30 20:11 | 52.08118 | 19.39108 | 27111 ft | 305 kts | 89° |
| 2026-04-30 20:12 | 52.07335 | 19.45856 | 26446 ft | 303 kts | 89° |
| 2026-04-30 20:12 | 52.06949 | 19.49207 | 26116 ft | 302 kts | 89° |
| 2026-04-30 20:12 | 52.06563 | 19.52557 | 25778 ft | 301 kts | 89° |
| 2026-04-30 20:13 | 52.06178 | 19.55894 | 25437 ft | 300 kts | 89° |
| 2026-04-30 20:13 | 52.05791 | 19.59220 | 25088 ft | 299 kts | 89° |
| 2026-04-30 20:13 | 52.05402 | 19.62541 | 24738 ft | 299 kts | 89° |
| 2026-04-30 20:13 | 52.05018 | 19.65810 | 24387 ft | 298 kts | 90° |
| 2026-04-30 20:14 | 52.04624 | 19.69155 | 24029 ft | 297 kts | 90° |
| 2026-04-30 20:14 | 52.04233 | 19.72512 | 23620 ft | 310 kts | 90° |
| 2026-04-30 20:14 | 52.03836 | 19.75940 | 23236 ft | 315 kts | 91° |
| 2026-04-30 20:14 | 52.03417 | 19.79439 | 22850 ft | 316 kts | 91° |
| 2026-04-30 20:15 | 52.02985 | 19.82983 | 22457 ft | 315 kts | 91° |
| 2026-04-30 20:15 | 52.02566 | 19.86414 | 22073 ft | 314 kts | 92° |
| 2026-04-30 20:15 | 52.02144 | 19.89879 | 21687 ft | 312 kts | 92° |
| 2026-04-30 20:15 | 52.01727 | 19.93328 | 21300 ft | 311 kts | 92° |
| 2026-04-30 20:16 | 52.01315 | 19.96763 | 20952 ft | 309 kts | 92° |
| 2026-04-30 20:16 | 52.00904 | 20.00183 | 20533 ft | 308 kts | 92° |
| 2026-04-30 20:16 | 52.00493 | 20.03582 | 20149 ft | 306 kts | 92° |
| 2026-04-30 20:16 | 52.00081 | 20.06967 | 19767 ft | 305 kts | 92° |
| 2026-04-30 20:17 | 51.99670 | 20.10338 | 19386 ft | 304 kts | 93° |
| 2026-04-30 20:17 | 51.99259 | 20.13706 | 18992 ft | 304 kts | 93° |
| 2026-04-30 20:17 | 51.98847 | 20.17120 | 18291 ft | 312 kts | 94° |
| 2026-04-30 20:17 | 51.98430 | 20.20520 | 18058 ft | 304 kts | 94° |
| 2026-04-30 20:18 | 51.98018 | 20.23837 | 17583 ft | 297 kts | 94° |
| 2026-04-30 20:18 | 51.97613 | 20.27114 | 17078 ft | 296 kts | 94° |
| 2026-04-30 20:18 | 51.97209 | 20.30397 | 16695 ft | 297 kts | 94° |
| 2026-04-30 20:18 | 51.96804 | 20.33691 | 16307 ft | 296 kts | 94° |
| 2026-04-30 20:19 | 51.96400 | 20.36958 | 15913 ft | 294 kts | 94° |
| 2026-04-30 20:19 | 51.96129 | 20.39139 | 15485 ft | 291 kts | 94° |
| 2026-04-30 20:19 | 51.95596 | 20.43394 | 14678 ft | 291 kts | 95° |
| 2026-04-30 20:19 | 51.95193 | 20.46602 | 14235 ft | 290 kts | 95° |
| 2026-04-30 20:20 | 51.94790 | 20.49804 | 13745 ft | 290 kts | 95° |
| 2026-04-30 20:20 | 51.94388 | 20.52996 | 13269 ft | 288 kts | 95° |
| 2026-04-30 20:20 | 51.94122 | 20.55104 | 12960 ft | 287 kts | 95° |
| 2026-04-30 20:20 | 51.93723 | 20.58268 | 12513 ft | 286 kts | 95° |
| 2026-04-30 20:21 | 51.93325 | 20.61418 | 12042 ft | 285 kts | 95° |
| 2026-04-30 20:21 | 51.92929 | 20.64551 | 11609 ft | 283 kts | 95° |
| 2026-04-30 20:21 | 51.92534 | 20.67669 | 11171 ft | 282 kts | 96° |
| 2026-04-30 20:21 | 51.92142 | 20.70730 | 10968 ft | 270 kts | 96° |
| 2026-04-30 20:22 | 51.91767 | 20.73604 | 10803 ft | 253 kts | 95° |
| 2026-04-30 20:22 | 51.91411 | 20.76350 | 10423 ft | 247 kts | 95° |
| 2026-04-30 20:22 | 51.91063 | 20.79061 | 9916 ft | 245 kts | 95° |
| 2026-04-30 20:22 | 51.90722 | 20.81755 | 9426 ft | 244 kts | 95° |
| 2026-04-30 20:23 | 51.90383 | 20.84442 | 8977 ft | 244 kts | 96° |
| 2026-04-30 20:23 | 51.90248 | 20.87110 | 8604 ft | 232 kts | 75° |
| 2026-04-30 20:23 | 51.90627 | 20.89613 | 8085 ft | 228 kts | 68° |
| 2026-04-30 20:23 | 51.91100 | 20.92064 | 7575 ft | 228 kts | 67° |
| 2026-04-30 20:24 | 51.91585 | 20.94499 | 7121 ft | 226 kts | 67° |
| 2026-04-30 20:24 | 51.92071 | 20.96909 | 6636 ft | 224 kts | 67° |
| 2026-04-30 20:24 | 51.92558 | 20.99304 | 6118 ft | 224 kts | 67° |
| 2026-04-30 20:24 | 51.93049 | 21.01692 | 5591 ft | 223 kts | 67° |
| 2026-04-30 20:25 | 51.94052 | 21.06372 | 4722 ft | 213 kts | 59° |
| 2026-04-30 20:25 | 51.95025 | 21.08050 | 4245 ft | 203 kts | 24° |
| 2026-04-30 20:26 | 51.97764 | 21.09100 | 3276 ft | 205 kts | 7° |
| 2026-04-30 20:26 | 52.00562 | 21.09770 | 3004 ft | 197 kts | 1° |
| 2026-04-30 20:26 | 52.01860 | 21.09462 | 3003 ft | 184 kts | 339° |
| 2026-04-30 20:27 | 52.04083 | 21.07591 | 2911 ft | 178 kts | 332° |
| 2026-04-30 20:27 | 52.06254 | 21.05706 | 2486 ft | 177 kts | 332° |
| 2026-04-30 20:28 | 52.08317 | 21.03911 | 2051 ft | 149 kts | 332° |
| 2026-04-30 20:28 | 52.10001 | 21.02447 | 1649 ft | 132 kts | 332° |
| 2026-04-30 20:29 | 52.11602 | 21.01052 | 1288 ft | 131 kts | 331° |
| 2026-04-30 20:30 | 52.14042 | 20.98926 | 727 ft | 134 kts | 331° |
| 2026-04-30 20:30 | 52.16403 | 20.96858 | 354 ft | 94 kts | 332° |
| 2026-04-30 20:31 | 52.17334 | 20.96077 | 355 ft | 25 kts | 345° |
| 2026-04-30 20:32 | 52.17568 | 20.96086 | 357 ft | 0 kts | 28° |
| 2026-04-30 20:33 | 52.17573 | 20.96090 | 355 ft | 3 kts | 28° |
| 2026-04-30 20:33 | 52.17682 | 20.96139 | 355 ft | 12 kts | 342° |
| 2026-04-30 20:33 | 52.17768 | 20.96087 | 358 ft | 13 kts | 11° |
| 2026-04-30 20:34 | 52.17831 | 20.96296 | 353 ft | 9 kts | 135° |
| 2026-04-30 20:34 | 52.17802 | 20.96317 | 354 ft | 2 kts | 160° |
| 2026-04-30 20:35 | 52.17785 | 20.96302 | 355 ft | 4 kts | 214° |
| 2026-04-30 20:35 | 52.17771 | 20.96262 | 352 ft | 4 kts | 244° |
| 2026-04-30 20:35 | 52.17768 | 20.96252 | 357 ft | 0 kts | 243° |